sensor_id;sensor_type;location;lat;lon;timestamp;P1;durP1;ratioP1;P2;durP2;ratioP2
2674;SDS011;1347;42.122;24.746;2022-12-05T00:02:24;17.17;;;14.43;;
2674;SDS011;1347;42.122;24.746;2022-12-05T00:04:51;17.83;;;15.60;;
2674;SDS011;1347;42.122;24.746;2022-12-05T00:07:18;15.03;;;12.70;;
2674;SDS011;1347;42.122;24.746;2022-12-05T00:09:45;13.50;;;11.90;;
2674;SDS011;1347;42.122;24.746;2022-12-05T00:12:12;15.13;;;13.10;;
2674;SDS011;1347;42.122;24.746;2022-12-05T00:14:40;13.73;;;12.17;;
2674;SDS011;1347;42.122;24.746;2022-12-05T00:17:07;13.57;;;11.40;;
2674;SDS011;1347;42.122;24.746;2022-12-05T00:19:34;13.10;;;11.63;;
2674;SDS011;1347;42.122;24.746;2022-12-05T00:22:01;12.00;;;10.00;;
2674;SDS011;1347;42.122;24.746;2022-12-05T00:24:28;16.13;;;13.00;;
2674;SDS011;1347;42.122;24.746;2022-12-05T00:26:54;17.57;;;13.17;;
2674;SDS011;1347;42.122;24.746;2022-12-05T00:29:21;13.27;;;10.50;;
2674;SDS011;1347;42.122;24.746;2022-12-05T00:31:50;17.57;;;12.27;;
2674;SDS011;1347;42.122;24.746;2022-12-05T00:34:16;14.20;;;10.93;;
2674;SDS011;1347;42.122;24.746;2022-12-05T00:36:43;13.27;;;11.20;;
2674;SDS011;1347;42.122;24.746;2022-12-05T00:39:10;14.73;;;10.90;;
2674;SDS011;1347;42.122;24.746;2022-12-05T00:41:38;14.53;;;11.93;;
2674;SDS011;1347;42.122;24.746;2022-12-05T00:44:05;13.93;;;11.30;;
2674;SDS011;1347;42.122;24.746;2022-12-05T00:46:32;14.13;;;11.00;;
2674;SDS011;1347;42.122;24.746;2022-12-05T00:49:02;16.40;;;11.23;;
2674;SDS011;1347;42.122;24.746;2022-12-05T00:51:31;13.10;;;11.80;;
2674;SDS011;1347;42.122;24.746;2022-12-05T00:54:00;15.47;;;11.63;;
2674;SDS011;1347;42.122;24.746;2022-12-05T00:56:29;14.13;;;12.63;;
2674;SDS011;1347;42.122;24.746;2022-12-05T00:58:57;15.67;;;12.50;;
2674;SDS011;1347;42.122;24.746;2022-12-05T01:01:26;16.20;;;13.03;;
2674;SDS011;1347;42.122;24.746;2022-12-05T01:03:55;20.93;;;12.63;;
2674;SDS011;1347;42.122;24.746;2022-12-05T01:06:24;14.63;;;12.47;;
2674;SDS011;1347;42.122;24.746;2022-12-05T01:08:52;13.17;;;11.60;;
2674;SDS011;1347;42.122;24.746;2022-12-05T01:11:20;17.13;;;13.40;;
2674;SDS011;1347;42.122;24.746;2022-12-05T01:13:47;17.20;;;13.57;;
2674;SDS011;1347;42.122;24.746;2022-12-05T01:16:15;17.47;;;12.43;;
2674;SDS011;1347;42.122;24.746;2022-12-05T01:18:44;15.00;;;12.23;;
2674;SDS011;1347;42.122;24.746;2022-12-05T01:21:12;15.90;;;11.50;;
2674;SDS011;1347;42.122;24.746;2022-12-05T01:23:40;15.50;;;12.90;;
2674;SDS011;1347;42.122;24.746;2022-12-05T01:26:08;13.97;;;12.30;;
2674;SDS011;1347;42.122;24.746;2022-12-05T01:28:37;16.10;;;12.30;;
2674;SDS011;1347;42.122;24.746;2022-12-05T01:31:05;14.13;;;12.67;;
2674;SDS011;1347;42.122;24.746;2022-12-05T01:33:33;16.47;;;13.30;;
2674;SDS011;1347;42.122;24.746;2022-12-05T01:36:01;17.17;;;13.43;;
2674;SDS011;1347;42.122;24.746;2022-12-05T01:38:28;14.73;;;13.13;;
2674;SDS011;1347;42.122;24.746;2022-12-05T01:41:00;19.80;;;14.17;;
2674;SDS011;1347;42.122;24.746;2022-12-05T01:43:28;17.97;;;12.83;;
2674;SDS011;1347;42.122;24.746;2022-12-05T01:45:55;18.50;;;13.20;;
2674;SDS011;1347;42.122;24.746;2022-12-05T01:48:23;17.27;;;12.87;;
2674;SDS011;1347;42.122;24.746;2022-12-05T01:50:52;16.33;;;12.63;;
2674;SDS011;1347;42.122;24.746;2022-12-05T01:53:20;13.00;;;11.57;;
2674;SDS011;1347;42.122;24.746;2022-12-05T01:55:47;15.70;;;12.60;;
2674;SDS011;1347;42.122;24.746;2022-12-05T01:58:18;16.00;;;12.53;;
2674;SDS011;1347;42.122;24.746;2022-12-05T02:00:45;18.67;;;14.10;;
2674;SDS011;1347;42.122;24.746;2022-12-05T02:03:13;18.30;;;13.40;;
2674;SDS011;1347;42.122;24.746;2022-12-05T02:05:45;15.80;;;13.50;;
2674;SDS011;1347;42.122;24.746;2022-12-05T02:08:14;17.00;;;14.90;;
2674;SDS011;1347;42.122;24.746;2022-12-05T02:10:41;18.30;;;14.97;;
2674;SDS011;1347;42.122;24.746;2022-12-05T02:13:14;16.60;;;14.40;;
2674;SDS011;1347;42.122;24.746;2022-12-05T02:15:54;20.07;;;16.37;;
2674;SDS011;1347;42.122;24.746;2022-12-05T02:18:28;19.63;;;14.87;;
2674;SDS011;1347;42.122;24.746;2022-12-05T02:21:17;22.40;;;15.37;;
2674;SDS011;1347;42.122;24.746;2022-12-05T02:24:12;18.27;;;14.87;;
2674;SDS011;1347;42.122;24.746;2022-12-05T02:26:58;18.20;;;15.77;;
2674;SDS011;1347;42.122;24.746;2022-12-05T02:29:41;20.03;;;15.67;;
2674;SDS011;1347;42.122;24.746;2022-12-05T02:32:35;18.60;;;15.30;;
2674;SDS011;1347;42.122;24.746;2022-12-05T02:35:12;22.50;;;15.80;;
2674;SDS011;1347;42.122;24.746;2022-12-05T02:37:49;17.97;;;15.50;;
2674;SDS011;1347;42.122;24.746;2022-12-05T02:40:22;19.83;;;14.23;;
2674;SDS011;1347;42.122;24.746;2022-12-05T02:42:52;17.60;;;14.03;;
2674;SDS011;1347;42.122;24.746;2022-12-05T02:45:26;17.23;;;15.40;;
2674;SDS011;1347;42.122;24.746;2022-12-05T02:47:56;23.23;;;16.60;;
2674;SDS011;1347;42.122;24.746;2022-12-05T02:50:27;21.50;;;18.37;;
2674;SDS011;1347;42.122;24.746;2022-12-05T02:52:59;23.53;;;18.10;;
2674;SDS011;1347;42.122;24.746;2022-12-05T02:55:30;23.97;;;19.63;;
2674;SDS011;1347;42.122;24.746;2022-12-05T02:58:00;25.23;;;19.90;;
2674;SDS011;1347;42.122;24.746;2022-12-05T03:00:33;24.47;;;19.60;;
2674;SDS011;1347;42.122;24.746;2022-12-05T03:03:00;26.90;;;19.40;;
2674;SDS011;1347;42.122;24.746;2022-12-05T03:05:30;21.20;;;18.90;;
2674;SDS011;1347;42.122;24.746;2022-12-05T03:08:04;21.93;;;19.10;;
2674;SDS011;1347;42.122;24.746;2022-12-05T03:10:33;28.93;;;19.13;;
2674;SDS011;1347;42.122;24.746;2022-12-05T03:13:04;22.10;;;18.27;;
2674;SDS011;1347;42.122;24.746;2022-12-05T03:15:38;25.10;;;20.90;;
2674;SDS011;1347;42.122;24.746;2022-12-05T03:18:10;25.73;;;19.70;;
2674;SDS011;1347;42.122;24.746;2022-12-05T03:20:42;23.40;;;20.17;;
2674;SDS011;1347;42.122;24.746;2022-12-05T03:23:14;26.30;;;19.40;;
2674;SDS011;1347;42.122;24.746;2022-12-05T03:25:47;20.90;;;18.70;;
2674;SDS011;1347;42.122;24.746;2022-12-05T03:28:18;20.13;;;18.03;;
2674;SDS011;1347;42.122;24.746;2022-12-05T03:30:52;24.53;;;17.90;;
2674;SDS011;1347;42.122;24.746;2022-12-05T03:33:21;22.57;;;16.70;;
2674;SDS011;1347;42.122;24.746;2022-12-05T03:35:53;17.83;;;15.90;;
2674;SDS011;1347;42.122;24.746;2022-12-05T03:38:27;20.97;;;17.13;;
2674;SDS011;1347;42.122;24.746;2022-12-05T03:41:00;20.53;;;16.40;;
2674;SDS011;1347;42.122;24.746;2022-12-05T03:43:35;24.07;;;15.63;;
2674;SDS011;1347;42.122;24.746;2022-12-05T03:46:11;24.17;;;17.80;;
2674;SDS011;1347;42.122;24.746;2022-12-05T03:48:45;22.40;;;17.40;;
2674;SDS011;1347;42.122;24.746;2022-12-05T03:51:19;22.90;;;18.50;;
2674;SDS011;1347;42.122;24.746;2022-12-05T03:53:52;19.47;;;15.87;;
2674;SDS011;1347;42.122;24.746;2022-12-05T03:56:23;19.53;;;16.70;;
2674;SDS011;1347;42.122;24.746;2022-12-05T03:58:56;18.53;;;14.70;;
2674;SDS011;1347;42.122;24.746;2022-12-05T04:01:31;21.63;;;15.87;;
2674;SDS011;1347;42.122;24.746;2022-12-05T04:04:01;23.53;;;17.57;;
2674;SDS011;1347;42.122;24.746;2022-12-05T04:06:36;23.97;;;17.60;;
2674;SDS011;1347;42.122;24.746;2022-12-05T04:09:06;21.70;;;17.43;;
2674;SDS011;1347;42.122;24.746;2022-12-05T04:11:36;20.17;;;16.90;;
2674;SDS011;1347;42.122;24.746;2022-12-05T04:14:09;21.07;;;17.67;;
2674;SDS011;1347;42.122;24.746;2022-12-05T04:16:41;23.10;;;17.93;;
2674;SDS011;1347;42.122;24.746;2022-12-05T04:19:30;24.30;;;17.77;;
2674;SDS011;1347;42.122;24.746;2022-12-05T04:22:20;23.63;;;18.73;;
2674;SDS011;1347;42.122;24.746;2022-12-05T04:24:49;23.57;;;19.47;;
2674;SDS011;1347;42.122;24.746;2022-12-05T04:27:36;24.23;;;19.13;;
2674;SDS011;1347;42.122;24.746;2022-12-05T04:30:11;19.53;;;16.43;;
2674;SDS011;1347;42.122;24.746;2022-12-05T04:32:44;24.17;;;18.83;;
2674;SDS011;1347;42.122;24.746;2022-12-05T04:35:16;26.03;;;19.87;;
2674;SDS011;1347;42.122;24.746;2022-12-05T04:37:48;24.60;;;17.17;;
2674;SDS011;1347;42.122;24.746;2022-12-05T04:40:19;20.90;;;17.90;;
2674;SDS011;1347;42.122;24.746;2022-12-05T04:42:50;20.37;;;17.87;;
2674;SDS011;1347;42.122;24.746;2022-12-05T04:45:20;21.67;;;18.70;;
2674;SDS011;1347;42.122;24.746;2022-12-05T04:47:52;22.87;;;19.97;;
2674;SDS011;1347;42.122;24.746;2022-12-05T04:50:24;24.43;;;20.60;;
2674;SDS011;1347;42.122;24.746;2022-12-05T04:52:55;27.07;;;19.37;;
2674;SDS011;1347;42.122;24.746;2022-12-05T04:55:24;25.43;;;17.77;;
2674;SDS011;1347;42.122;24.746;2022-12-05T04:57:56;25.47;;;21.60;;
2674;SDS011;1347;42.122;24.746;2022-12-05T05:00:30;22.33;;;17.67;;
2674;SDS011;1347;42.122;24.746;2022-12-05T05:03:04;27.07;;;20.10;;
2674;SDS011;1347;42.122;24.746;2022-12-05T05:05:36;30.43;;;19.10;;
2674;SDS011;1347;42.122;24.746;2022-12-05T05:08:04;26.00;;;18.93;;
2674;SDS011;1347;42.122;24.746;2022-12-05T05:10:43;30.93;;;19.13;;
2674;SDS011;1347;42.122;24.746;2022-12-05T05:13:16;23.80;;;17.60;;
2674;SDS011;1347;42.122;24.746;2022-12-05T05:15:42;19.60;;;16.73;;
2674;SDS011;1347;42.122;24.746;2022-12-05T05:18:11;25.80;;;20.10;;
2674;SDS011;1347;42.122;24.746;2022-12-05T05:20:38;23.80;;;16.87;;
2674;SDS011;1347;42.122;24.746;2022-12-05T05:23:04;21.53;;;17.67;;
2674;SDS011;1347;42.122;24.746;2022-12-05T05:25:31;25.67;;;18.50;;
2674;SDS011;1347;42.122;24.746;2022-12-05T05:27:58;22.77;;;17.97;;
2674;SDS011;1347;42.122;24.746;2022-12-05T05:30:25;21.60;;;17.23;;
2674;SDS011;1347;42.122;24.746;2022-12-05T05:32:52;25.20;;;17.50;;
2674;SDS011;1347;42.122;24.746;2022-12-05T05:35:20;20.93;;;16.97;;
2674;SDS011;1347;42.122;24.746;2022-12-05T05:37:47;24.17;;;18.30;;
2674;SDS011;1347;42.122;24.746;2022-12-05T05:40:14;23.40;;;17.43;;
2674;SDS011;1347;42.122;24.746;2022-12-05T05:42:42;32.93;;;19.37;;
2674;SDS011;1347;42.122;24.746;2022-12-05T05:45:09;29.33;;;19.07;;
2674;SDS011;1347;42.122;24.746;2022-12-05T05:47:37;30.93;;;19.70;;
2674;SDS011;1347;42.122;24.746;2022-12-05T05:50:04;21.20;;;17.73;;
2674;SDS011;1347;42.122;24.746;2022-12-05T05:52:34;22.90;;;18.27;;
2674;SDS011;1347;42.122;24.746;2022-12-05T05:55:02;33.27;;;21.80;;
2674;SDS011;1347;42.122;24.746;2022-12-05T05:57:31;27.87;;;19.40;;
2674;SDS011;1347;42.122;24.746;2022-12-05T05:59:58;25.97;;;20.03;;
2674;SDS011;1347;42.122;24.746;2022-12-05T06:02:25;28.80;;;19.27;;
2674;SDS011;1347;42.122;24.746;2022-12-05T06:04:56;27.23;;;16.63;;
2674;SDS011;1347;42.122;24.746;2022-12-05T06:07:23;24.43;;;19.77;;
2674;SDS011;1347;42.122;24.746;2022-12-05T06:09:52;25.00;;;18.17;;
2674;SDS011;1347;42.122;24.746;2022-12-05T06:12:19;23.17;;;17.87;;
2674;SDS011;1347;42.122;24.746;2022-12-05T06:14:46;24.07;;;18.20;;
2674;SDS011;1347;42.122;24.746;2022-12-05T06:17:13;33.97;;;19.70;;
2674;SDS011;1347;42.122;24.746;2022-12-05T06:19:40;28.73;;;20.23;;
2674;SDS011;1347;42.122;24.746;2022-12-05T06:22:07;31.13;;;20.80;;
2674;SDS011;1347;42.122;24.746;2022-12-05T06:24:34;24.83;;;20.07;;
2674;SDS011;1347;42.122;24.746;2022-12-05T06:27:03;31.50;;;20.40;;
2674;SDS011;1347;42.122;24.746;2022-12-05T06:29:30;30.77;;;21.90;;
2674;SDS011;1347;42.122;24.746;2022-12-05T06:31:57;36.83;;;21.53;;
2674;SDS011;1347;42.122;24.746;2022-12-05T06:34:24;33.43;;;22.20;;
2674;SDS011;1347;42.122;24.746;2022-12-05T06:36:50;30.23;;;19.53;;
2674;SDS011;1347;42.122;24.746;2022-12-05T06:39:17;35.80;;;25.10;;
2674;SDS011;1347;42.122;24.746;2022-12-05T06:41:44;29.57;;;20.83;;
2674;SDS011;1347;42.122;24.746;2022-12-05T06:44:12;29.03;;;20.40;;
2674;SDS011;1347;42.122;24.746;2022-12-05T06:46:39;25.00;;;19.13;;
2674;SDS011;1347;42.122;24.746;2022-12-05T06:49:08;31.23;;;21.87;;
2674;SDS011;1347;42.122;24.746;2022-12-05T06:51:35;33.20;;;20.80;;
2674;SDS011;1347;42.122;24.746;2022-12-05T06:54:02;34.17;;;21.73;;
2674;SDS011;1347;42.122;24.746;2022-12-05T06:56:29;39.27;;;20.80;;
2674;SDS011;1347;42.122;24.746;2022-12-05T06:58:56;33.87;;;20.70;;
2674;SDS011;1347;42.122;24.746;2022-12-05T07:01:25;28.87;;;22.03;;
2674;SDS011;1347;42.122;24.746;2022-12-05T07:04:07;32.90;;;22.37;;
2674;SDS011;1347;42.122;24.746;2022-12-05T07:06:36;34.93;;;21.77;;
2674;SDS011;1347;42.122;24.746;2022-12-05T07:09:04;40.23;;;22.50;;
2674;SDS011;1347;42.122;24.746;2022-12-05T07:11:31;35.63;;;21.73;;
2674;SDS011;1347;42.122;24.746;2022-12-05T07:13:58;46.43;;;27.13;;
2674;SDS011;1347;42.122;24.746;2022-12-05T07:16:26;49.67;;;30.77;;
2674;SDS011;1347;42.122;24.746;2022-12-05T07:18:53;48.60;;;29.87;;
2674;SDS011;1347;42.122;24.746;2022-12-05T07:21:20;39.00;;;24.80;;
2674;SDS011;1347;42.122;24.746;2022-12-05T07:23:48;49.53;;;27.70;;
2674;SDS011;1347;42.122;24.746;2022-12-05T07:26:16;37.93;;;27.70;;
2674;SDS011;1347;42.122;24.746;2022-12-05T07:28:45;42.60;;;27.50;;
2674;SDS011;1347;42.122;24.746;2022-12-05T07:31:13;39.00;;;27.57;;
2674;SDS011;1347;42.122;24.746;2022-12-05T07:33:43;42.50;;;29.00;;
2674;SDS011;1347;42.122;24.746;2022-12-05T07:36:11;42.57;;;27.63;;
2674;SDS011;1347;42.122;24.746;2022-12-05T07:38:39;45.57;;;30.23;;
2674;SDS011;1347;42.122;24.746;2022-12-05T07:41:07;39.53;;;27.43;;
2674;SDS011;1347;42.122;24.746;2022-12-05T07:43:35;53.93;;;30.90;;
2674;SDS011;1347;42.122;24.746;2022-12-05T07:46:02;42.03;;;25.67;;
2674;SDS011;1347;42.122;24.746;2022-12-05T07:48:30;47.23;;;25.30;;
2674;SDS011;1347;42.122;24.746;2022-12-05T07:50:59;40.70;;;26.07;;
2674;SDS011;1347;42.122;24.746;2022-12-05T07:53:27;42.57;;;24.17;;
2674;SDS011;1347;42.122;24.746;2022-12-05T07:55:57;51.63;;;27.67;;
2674;SDS011;1347;42.122;24.746;2022-12-05T07:58:24;41.27;;;26.00;;
2674;SDS011;1347;42.122;24.746;2022-12-05T08:00:51;51.47;;;28.13;;
2674;SDS011;1347;42.122;24.746;2022-12-05T08:03:18;52.83;;;26.73;;
2674;SDS011;1347;42.122;24.746;2022-12-05T08:05:45;46.13;;;26.73;;
2674;SDS011;1347;42.122;24.746;2022-12-05T08:08:13;42.07;;;23.50;;
2674;SDS011;1347;42.122;24.746;2022-12-05T08:10:40;46.00;;;24.63;;
2674;SDS011;1347;42.122;24.746;2022-12-05T08:13:07;53.53;;;30.20;;
2674;SDS011;1347;42.122;24.746;2022-12-05T08:15:34;47.37;;;32.37;;
2674;SDS011;1347;42.122;24.746;2022-12-05T08:18:01;48.33;;;29.30;;
2674;SDS011;1347;42.122;24.746;2022-12-05T08:20:28;48.17;;;28.93;;
2674;SDS011;1347;42.122;24.746;2022-12-05T08:22:55;58.40;;;34.70;;
2674;SDS011;1347;42.122;24.746;2022-12-05T08:25:24;46.73;;;30.67;;
2674;SDS011;1347;42.122;24.746;2022-12-05T08:27:51;45.30;;;32.60;;
2674;SDS011;1347;42.122;24.746;2022-12-05T08:30:18;54.77;;;32.70;;
2674;SDS011;1347;42.122;24.746;2022-12-05T08:32:45;42.33;;;29.90;;
2674;SDS011;1347;42.122;24.746;2022-12-05T08:35:12;47.20;;;31.40;;
2674;SDS011;1347;42.122;24.746;2022-12-05T08:37:40;50.80;;;33.03;;
2674;SDS011;1347;42.122;24.746;2022-12-05T08:40:07;46.97;;;31.90;;
2674;SDS011;1347;42.122;24.746;2022-12-05T08:42:36;47.03;;;31.30;;
2674;SDS011;1347;42.122;24.746;2022-12-05T08:45:03;46.63;;;32.37;;
2674;SDS011;1347;42.122;24.746;2022-12-05T08:47:32;51.00;;;33.47;;
2674;SDS011;1347;42.122;24.746;2022-12-05T08:49:59;45.17;;;30.57;;
2674;SDS011;1347;42.122;24.746;2022-12-05T08:52:26;45.10;;;29.67;;
2674;SDS011;1347;42.122;24.746;2022-12-05T08:54:53;51.70;;;30.93;;
2674;SDS011;1347;42.122;24.746;2022-12-05T08:57:19;49.50;;;29.53;;
2674;SDS011;1347;42.122;24.746;2022-12-05T08:59:48;47.63;;;31.00;;
2674;SDS011;1347;42.122;24.746;2022-12-05T09:02:15;43.70;;;30.20;;
2674;SDS011;1347;42.122;24.746;2022-12-05T09:04:42;43.03;;;28.30;;
2674;SDS011;1347;42.122;24.746;2022-12-05T09:07:08;49.57;;;32.27;;
2674;SDS011;1347;42.122;24.746;2022-12-05T09:09:35;58.17;;;32.03;;
2674;SDS011;1347;42.122;24.746;2022-12-05T09:12:03;48.93;;;32.37;;
2674;SDS011;1347;42.122;24.746;2022-12-05T09:14:30;49.20;;;32.00;;
2674;SDS011;1347;42.122;24.746;2022-12-05T09:16:58;50.33;;;34.57;;
2674;SDS011;1347;42.122;24.746;2022-12-05T09:19:26;46.50;;;32.23;;
2674;SDS011;1347;42.122;24.746;2022-12-05T09:21:54;40.23;;;26.30;;
2674;SDS011;1347;42.122;24.746;2022-12-05T09:24:22;44.83;;;25.90;;
2674;SDS011;1347;42.122;24.746;2022-12-05T09:26:49;45.90;;;25.37;;
2674;SDS011;1347;42.122;24.746;2022-12-05T09:29:17;41.97;;;24.10;;
2674;SDS011;1347;42.122;24.746;2022-12-05T09:31:44;37.50;;;25.10;;
2674;SDS011;1347;42.122;24.746;2022-12-05T09:34:14;41.20;;;27.33;;
2674;SDS011;1347;42.122;24.746;2022-12-05T09:36:42;34.90;;;22.60;;
2674;SDS011;1347;42.122;24.746;2022-12-05T09:39:09;49.27;;;26.43;;
2674;SDS011;1347;42.122;24.746;2022-12-05T09:41:45;38.13;;;23.63;;
2674;SDS011;1347;42.122;24.746;2022-12-05T09:44:40;35.90;;;22.20;;
2674;SDS011;1347;42.122;24.746;2022-12-05T09:47:12;43.77;;;24.50;;
2674;SDS011;1347;42.122;24.746;2022-12-05T09:49:50;42.73;;;25.43;;
2674;SDS011;1347;42.122;24.746;2022-12-05T09:52:23;41.23;;;28.90;;
2674;SDS011;1347;42.122;24.746;2022-12-05T09:54:53;33.00;;;21.57;;
2674;SDS011;1347;42.122;24.746;2022-12-05T09:57:34;29.50;;;20.40;;
2674;SDS011;1347;42.122;24.746;2022-12-05T10:00:04;35.13;;;24.70;;
2674;SDS011;1347;42.122;24.746;2022-12-05T10:02:35;40.10;;;25.67;;
2674;SDS011;1347;42.122;24.746;2022-12-05T10:05:13;32.07;;;22.43;;
2674;SDS011;1347;42.122;24.746;2022-12-05T10:07:46;27.07;;;18.97;;
2674;SDS011;1347;42.122;24.746;2022-12-05T10:10:24;23.47;;;17.70;;
2674;SDS011;1347;42.122;24.746;2022-12-05T10:12:59;20.17;;;16.80;;
2674;SDS011;1347;42.122;24.746;2022-12-05T10:15:39;22.77;;;16.17;;
2674;SDS011;1347;42.122;24.746;2022-12-05T10:18:09;23.70;;;17.00;;
2674;SDS011;1347;42.122;24.746;2022-12-05T10:20:49;24.17;;;17.50;;
2674;SDS011;1347;42.122;24.746;2022-12-05T10:23:20;24.63;;;15.90;;
2674;SDS011;1347;42.122;24.746;2022-12-05T10:25:50;30.70;;;19.90;;
2674;SDS011;1347;42.122;24.746;2022-12-05T10:28:27;24.30;;;19.83;;
2674;SDS011;1347;42.122;24.746;2022-12-05T10:31:00;30.70;;;22.90;;
2674;SDS011;1347;42.122;24.746;2022-12-05T10:33:33;33.43;;;23.70;;
2674;SDS011;1347;42.122;24.746;2022-12-05T10:36:09;29.63;;;22.87;;
2674;SDS011;1347;42.122;24.746;2022-12-05T10:38:37;32.97;;;24.20;;
2674;SDS011;1347;42.122;24.746;2022-12-05T10:41:06;33.47;;;24.00;;
2674;SDS011;1347;42.122;24.746;2022-12-05T10:43:34;36.60;;;23.13;;
2674;SDS011;1347;42.122;24.746;2022-12-05T10:46:03;28.23;;;23.73;;
2674;SDS011;1347;42.122;24.746;2022-12-05T10:48:33;33.73;;;24.77;;
2674;SDS011;1347;42.122;24.746;2022-12-05T10:51:02;32.60;;;24.27;;
2674;SDS011;1347;42.122;24.746;2022-12-05T10:53:35;37.27;;;26.43;;
2674;SDS011;1347;42.122;24.746;2022-12-05T10:59:01;38.90;;;27.33;;
2674;SDS011;1347;42.122;24.746;2022-12-05T11:01:28;39.90;;;27.27;;
2674;SDS011;1347;42.122;24.746;2022-12-05T11:03:55;35.53;;;24.43;;
2674;SDS011;1347;42.122;24.746;2022-12-05T11:06:24;40.47;;;26.70;;
2674;SDS011;1347;42.122;24.746;2022-12-05T11:08:55;37.10;;;25.87;;
2674;SDS011;1347;42.122;24.746;2022-12-05T11:11:24;36.97;;;28.67;;
2674;SDS011;1347;42.122;24.746;2022-12-05T11:13:53;35.63;;;24.60;;
2674;SDS011;1347;42.122;24.746;2022-12-05T11:16:23;34.47;;;22.77;;
2674;SDS011;1347;42.122;24.746;2022-12-05T11:18:51;32.13;;;24.53;;
2674;SDS011;1347;42.122;24.746;2022-12-05T11:21:18;32.87;;;24.27;;
2674;SDS011;1347;42.122;24.746;2022-12-05T11:23:45;37.00;;;23.40;;
2674;SDS011;1347;42.122;24.746;2022-12-05T11:26:18;29.97;;;23.50;;
2674;SDS011;1347;42.122;24.746;2022-12-05T11:28:59;30.67;;;23.13;;
2674;SDS011;1347;42.122;24.746;2022-12-05T11:31:27;36.83;;;25.00;;
2674;SDS011;1347;42.122;24.746;2022-12-05T11:34:10;43.13;;;27.40;;
2674;SDS011;1347;42.122;24.746;2022-12-05T11:36:42;41.70;;;27.23;;
2674;SDS011;1347;42.122;24.746;2022-12-05T11:39:13;42.27;;;28.10;;
2674;SDS011;1347;42.122;24.746;2022-12-05T11:41:47;44.07;;;30.60;;
2674;SDS011;1347;42.122;24.746;2022-12-05T11:44:50;37.10;;;23.70;;
2674;SDS011;1347;42.122;24.746;2022-12-05T11:47:39;38.40;;;26.90;;
2674;SDS011;1347;42.122;24.746;2022-12-05T11:50:26;35.90;;;24.67;;
2674;SDS011;1347;42.122;24.746;2022-12-05T11:53:04;28.97;;;23.50;;
2674;SDS011;1347;42.122;24.746;2022-12-05T11:55:46;31.30;;;24.07;;
2674;SDS011;1347;42.122;24.746;2022-12-05T11:58:37;36.10;;;23.70;;
2674;SDS011;1347;42.122;24.746;2022-12-05T12:01:18;43.93;;;23.20;;
2674;SDS011;1347;42.122;24.746;2022-12-05T12:04:04;36.73;;;23.27;;
2674;SDS011;1347;42.122;24.746;2022-12-05T12:06:47;31.37;;;23.57;;
2674;SDS011;1347;42.122;24.746;2022-12-05T12:09:30;35.50;;;23.10;;
2674;SDS011;1347;42.122;24.746;2022-12-05T12:12:09;39.50;;;26.53;;
2674;SDS011;1347;42.122;24.746;2022-12-05T12:14:49;35.70;;;23.90;;
2674;SDS011;1347;42.122;24.746;2022-12-05T12:17:30;31.20;;;21.23;;
2674;SDS011;1347;42.122;24.746;2022-12-05T12:23:04;27.80;;;20.27;;
2674;SDS011;1347;42.122;24.746;2022-12-05T12:25:42;34.47;;;21.90;;
2674;SDS011;1347;42.122;24.746;2022-12-05T12:28:24;36.17;;;27.63;;
2674;SDS011;1347;42.122;24.746;2022-12-05T12:31:04;39.13;;;28.17;;
2674;SDS011;1347;42.122;24.746;2022-12-05T12:33:43;32.73;;;22.83;;
2674;SDS011;1347;42.122;24.746;2022-12-05T12:36:15;37.77;;;25.50;;
2674;SDS011;1347;42.122;24.746;2022-12-05T12:38:52;32.67;;;23.90;;
2674;SDS011;1347;42.122;24.746;2022-12-05T12:41:35;30.20;;;24.13;;
2674;SDS011;1347;42.122;24.746;2022-12-05T12:44:23;33.83;;;22.20;;
2674;SDS011;1347;42.122;24.746;2022-12-05T12:47:08;27.80;;;20.20;;
2674;SDS011;1347;42.122;24.746;2022-12-05T12:49:44;30.30;;;18.93;;
2674;SDS011;1347;42.122;24.746;2022-12-05T12:52:21;24.43;;;18.27;;
2674;SDS011;1347;42.122;24.746;2022-12-05T12:54:55;23.47;;;18.27;;
2674;SDS011;1347;42.122;24.746;2022-12-05T12:57:36;39.20;;;19.73;;
2674;SDS011;1347;42.122;24.746;2022-12-05T13:00:20;23.83;;;19.17;;
2674;SDS011;1347;42.122;24.746;2022-12-05T13:02:52;29.40;;;21.53;;
2674;SDS011;1347;42.122;24.746;2022-12-05T13:05:25;22.17;;;17.27;;
2674;SDS011;1347;42.122;24.746;2022-12-05T13:08:00;28.53;;;19.83;;
2674;SDS011;1347;42.122;24.746;2022-12-05T13:10:31;23.20;;;17.07;;
2674;SDS011;1347;42.122;24.746;2022-12-05T13:13:01;22.60;;;16.10;;
2674;SDS011;1347;42.122;24.746;2022-12-05T13:15:32;28.50;;;19.30;;
2674;SDS011;1347;42.122;24.746;2022-12-05T13:18:06;28.07;;;19.53;;
2674;SDS011;1347;42.122;24.746;2022-12-05T13:20:41;29.73;;;20.07;;
2674;SDS011;1347;42.122;24.746;2022-12-05T13:23:11;23.90;;;18.70;;
2674;SDS011;1347;42.122;24.746;2022-12-05T13:25:40;22.83;;;17.83;;
2674;SDS011;1347;42.122;24.746;2022-12-05T13:28:15;24.03;;;16.70;;
2674;SDS011;1347;42.122;24.746;2022-12-05T13:30:49;21.07;;;17.53;;
2674;SDS011;1347;42.122;24.746;2022-12-05T13:33:33;24.50;;;18.47;;
2674;SDS011;1347;42.122;24.746;2022-12-05T13:36:03;19.73;;;17.50;;
2674;SDS011;1347;42.122;24.746;2022-12-05T13:38:54;46.43;;;34.60;;
2674;SDS011;1347;42.122;24.746;2022-12-05T13:41:41;25.93;;;20.80;;
2674;SDS011;1347;42.122;24.746;2022-12-05T13:44:29;28.37;;;20.50;;
2674;SDS011;1347;42.122;24.746;2022-12-05T13:47:00;23.50;;;18.60;;
2674;SDS011;1347;42.122;24.746;2022-12-05T13:49:34;23.83;;;16.80;;
2674;SDS011;1347;42.122;24.746;2022-12-05T13:52:09;27.67;;;19.53;;
2674;SDS011;1347;42.122;24.746;2022-12-05T13:54:40;23.07;;;19.60;;
2674;SDS011;1347;42.122;24.746;2022-12-05T14:00:19;20.83;;;17.00;;
2674;SDS011;1347;42.122;24.746;2022-12-05T14:02:49;22.33;;;18.03;;
2674;SDS011;1347;42.122;24.746;2022-12-05T14:11:11;37.17;;;20.97;;
2674;SDS011;1347;42.122;24.746;2022-12-05T14:13:39;29.77;;;18.67;;
2674;SDS011;1347;42.122;24.746;2022-12-05T14:19:12;32.10;;;22.07;;
2674;SDS011;1347;42.122;24.746;2022-12-05T14:21:58;24.13;;;20.80;;
2674;SDS011;1347;42.122;24.746;2022-12-05T14:24:30;28.77;;;20.70;;
2674;SDS011;1347;42.122;24.746;2022-12-05T14:27:05;27.90;;;20.13;;
2674;SDS011;1347;42.122;24.746;2022-12-05T14:29:40;30.40;;;22.37;;
2674;SDS011;1347;42.122;24.746;2022-12-05T14:32:21;25.67;;;20.00;;
2674;SDS011;1347;42.122;24.746;2022-12-05T14:34:54;30.80;;;23.00;;
2674;SDS011;1347;42.122;24.746;2022-12-05T14:37:29;35.30;;;22.80;;
2674;SDS011;1347;42.122;24.746;2022-12-05T14:39:58;29.30;;;22.40;;
2674;SDS011;1347;42.122;24.746;2022-12-05T14:42:31;27.77;;;22.20;;
2674;SDS011;1347;42.122;24.746;2022-12-05T14:45:16;28.20;;;18.80;;
2674;SDS011;1347;42.122;24.746;2022-12-05T14:47:52;35.87;;;21.27;;
2674;SDS011;1347;42.122;24.746;2022-12-05T14:50:30;25.73;;;21.50;;
2674;SDS011;1347;42.122;24.746;2022-12-05T14:53:17;28.30;;;22.97;;
2674;SDS011;1347;42.122;24.746;2022-12-05T14:55:50;33.10;;;22.87;;
2674;SDS011;1347;42.122;24.746;2022-12-05T14:58:21;32.60;;;23.37;;
2674;SDS011;1347;42.122;24.746;2022-12-05T15:00:57;36.70;;;25.63;;
2674;SDS011;1347;42.122;24.746;2022-12-05T15:03:28;36.77;;;24.70;;
2674;SDS011;1347;42.122;24.746;2022-12-05T15:05:58;39.37;;;28.63;;
2674;SDS011;1347;42.122;24.746;2022-12-05T15:08:31;36.43;;;26.60;;
2674;SDS011;1347;42.122;24.746;2022-12-05T15:11:05;36.03;;;27.10;;
2674;SDS011;1347;42.122;24.746;2022-12-05T15:13:32;39.70;;;29.27;;
2674;SDS011;1347;42.122;24.746;2022-12-05T15:15:59;36.47;;;27.47;;
2674;SDS011;1347;42.122;24.746;2022-12-05T15:18:33;38.53;;;28.10;;